createdAt,value
2023-04-01T00:00:50.085Z,0.20
2023-04-01T00:03:19.380Z,0.40
2023-04-01T00:05:47.590Z,0.10
2023-04-01T00:08:15.846Z,0.00
2023-04-01T00:10:43.756Z,0.10
2023-04-01T00:13:11.592Z,0.00
2023-04-01T00:15:39.434Z,0.10
2023-04-01T00:18:07.342Z,0.28
2023-04-01T00:20:36.679Z,0.00
2023-04-01T00:23:05.499Z,0.00
2023-04-01T00:25:33.537Z,0.00
2023-04-01T00:28:01.863Z,0.20
2023-04-01T00:30:29.754Z,0.13
2023-04-01T00:32:57.844Z,0.03
2023-04-01T00:35:25.820Z,0.10
2023-04-01T00:37:55.968Z,0.10
2023-04-01T00:40:29.182Z,0.10
2023-04-01T00:42:57.151Z,0.10
2023-04-01T00:45:32.538Z,0.08
2023-04-01T00:48:03.841Z,0.30
2023-04-01T00:50:33.834Z,0.10
2023-04-01T00:53:04.390Z,0.10
2023-04-01T00:55:36.261Z,0.00
2023-04-01T00:58:07.045Z,0.45
2023-04-01T01:00:35.701Z,0.25
2023-04-01T01:03:04.017Z,0.30
2023-04-01T01:05:48.798Z,0.10
2023-04-01T01:08:27.938Z,0.10
2023-04-01T01:10:55.772Z,0.10
2023-04-01T01:13:31.947Z,0.10
2023-04-01T01:16:06.822Z,0.15
2023-04-01T01:18:41.814Z,0.00
2023-04-01T01:21:33.646Z,0.20
2023-04-01T01:24:24.731Z,0.20
2023-04-01T01:26:58.646Z,0.00
2023-04-01T01:29:59.310Z,0.15
2023-04-01T01:32:49.360Z,0.10
2023-04-01T01:35:24.175Z,0.00
2023-04-01T01:37:56.136Z,0.15
2023-04-01T01:40:24.912Z,0.30
2023-04-01T01:42:56.764Z,0.13
2023-04-01T01:45:27.978Z,0.00
2023-04-01T01:50:28.870Z,0.10
2023-04-01T01:53:04.151Z,0.10
2023-04-01T01:55:34.908Z,0.30
2023-04-01T01:58:07.947Z,0.13
2023-04-01T02:00:37.107Z,0.10
2023-04-01T02:03:06.503Z,0.13
2023-04-01T02:05:36.676Z,0.03
2023-04-01T02:08:10.050Z,0.10
2023-04-01T02:10:42.075Z,0.40
2023-04-01T02:13:15.511Z,0.10
2023-04-01T02:15:48.193Z,0.28
2023-04-01T02:18:17.850Z,0.15
2023-04-01T02:20:47.524Z,0.05
2023-04-01T02:23:16.370Z,0.22
2023-04-01T02:25:46.787Z,0.05
2023-04-01T02:28:17.464Z,0.47
2023-04-01T02:30:46.530Z,0.30
2023-04-01T02:33:14.635Z,0.05
2023-04-01T02:35:42.664Z,0.08
2023-04-01T02:38:12.108Z,0.20
2023-04-01T02:40:44.599Z,0.38
2023-04-01T02:43:12.465Z,0.30
2023-04-01T02:45:40.265Z,0.10
2023-04-01T02:48:08.283Z,0.10
2023-04-01T02:50:36.388Z,0.10
2023-04-01T02:53:07.124Z,0.10
2023-04-01T02:55:36.281Z,0.05
2023-04-01T02:58:04.271Z,0.10
2023-04-01T03:00:32.491Z,0.10
2023-04-01T03:03:00.966Z,0.00
2023-04-01T03:05:29.092Z,0.10
2023-04-01T03:07:57.289Z,0.00
2023-04-01T03:10:25.268Z,0.38
2023-04-01T03:12:54.429Z,0.13
2023-04-01T03:15:22.378Z,0.35
2023-04-01T03:17:50.389Z,0.08
2023-04-01T03:20:18.397Z,0.20
2023-04-01T03:22:46.811Z,0.10
2023-04-01T03:25:14.739Z,0.10
2023-04-01T03:27:42.587Z,0.10
2023-04-01T03:30:12.402Z,0.08
2023-04-01T03:32:40.318Z,0.10
2023-04-01T03:35:10.624Z,0.05
2023-04-01T03:37:38.488Z,0.00
2023-04-01T03:40:07.751Z,0.10
2023-04-01T03:42:36.110Z,0.10
2023-04-01T03:45:04.268Z,0.10
2023-04-01T03:47:33.548Z,0.10
2023-04-01T03:50:01.782Z,0.17
2023-04-01T03:52:29.582Z,0.00
2023-04-01T03:54:57.422Z,0.30
2023-04-01T03:57:25.832Z,0.10
2023-04-01T03:59:53.780Z,0.00
2023-04-01T04:02:21.946Z,0.25
2023-04-01T04:04:51.131Z,0.00
2023-04-01T04:07:18.935Z,0.10
2023-04-01T04:09:46.753Z,0.00
2023-04-01T04:12:14.650Z,0.00
2023-04-01T04:14:42.513Z,0.10
2023-04-01T04:17:14.707Z,0.00
2023-04-01T04:19:42.592Z,0.10
2023-04-01T04:22:11.753Z,0.10
2023-04-01T04:24:39.787Z,0.00
2023-04-01T04:27:07.628Z,0.08
2023-04-01T04:29:35.532Z,0.10
2023-04-01T04:32:03.446Z,0.10
2023-04-01T04:34:31.418Z,0.00
2023-04-01T04:36:59.557Z,0.00
2023-04-01T04:39:28.946Z,0.17
2023-04-01T04:41:56.792Z,0.20
2023-04-01T04:44:24.705Z,0.00
2023-04-01T04:46:52.593Z,0.10
2023-04-01T04:49:20.468Z,0.10
2023-04-01T04:51:49.017Z,0.10
2023-04-01T04:54:16.860Z,0.08
2023-04-01T04:56:46.037Z,0.03
2023-04-01T04:59:13.888Z,0.20
2023-04-01T05:01:41.766Z,0.10
2023-04-01T05:04:09.660Z,0.30
2023-04-01T05:06:37.484Z,0.10
2023-04-01T05:09:05.646Z,0.10
2023-04-01T05:11:33.473Z,0.20
2023-04-01T05:14:02.663Z,0.30
2023-04-01T05:16:32.369Z,0.20
2023-04-01T05:19:06.245Z,0.20
2023-04-01T05:21:34.464Z,0.10
2023-04-01T05:24:02.419Z,0.10
2023-04-01T05:26:30.461Z,0.10
2023-04-01T05:28:58.275Z,0.10
2023-04-01T05:31:27.597Z,0.15
2023-04-01T05:33:55.539Z,0.10
2023-04-01T05:36:23.837Z,0.20
2023-04-01T05:38:51.771Z,0.20
2023-04-01T05:41:19.649Z,0.28
2023-04-01T05:43:47.551Z,0.20
2023-04-01T05:46:15.417Z,0.20
2023-04-01T05:48:44.737Z,0.10
2023-04-01T05:51:15.480Z,0.32
2023-04-01T05:53:43.490Z,0.10
2023-04-01T05:56:11.515Z,0.10
2023-04-01T05:58:39.688Z,0.10
2023-04-01T06:01:12.818Z,0.10
2023-04-01T06:03:45.394Z,0.50
2023-04-01T06:06:16.845Z,0.22
2023-04-01T06:08:45.388Z,0.15
2023-04-01T06:11:24.642Z,0.10
2023-04-01T06:14:09.082Z,0.17
2023-04-01T06:16:47.050Z,0.00
2023-04-01T06:19:32.870Z,0.10
2023-04-01T06:22:31.652Z,0.10
2023-04-01T06:25:20.573Z,0.10
2023-04-01T06:28:09.071Z,0.20
2023-04-01T06:30:43.164Z,0.10
2023-04-01T06:33:43.512Z,0.05
2023-04-01T06:36:31.307Z,0.00
2023-04-01T06:39:11.064Z,0.10
2023-04-01T06:42:05.250Z,0.10
2023-04-01T06:44:40.714Z,0.20
2023-04-01T06:47:22.600Z,0.10
2023-04-01T06:49:58.080Z,0.00
2023-04-01T06:52:33.079Z,0.10
2023-04-01T06:55:10.892Z,0.10
2023-04-01T06:57:44.540Z,0.32
2023-04-01T07:00:17.417Z,0.30
2023-04-01T07:02:54.634Z,0.10
2023-04-01T07:05:22.758Z,0.30
2023-04-01T07:07:56.745Z,0.17
2023-04-01T07:10:30.205Z,0.20
2023-04-01T07:13:04.344Z,0.10
2023-04-01T07:15:35.808Z,0.20
2023-04-01T07:18:07.754Z,0.17
2023-04-01T07:20:38.808Z,0.10
2023-04-01T07:23:14.845Z,0.17
2023-04-01T07:25:47.848Z,0.08
2023-04-01T07:28:17.981Z,0.10
2023-04-01T07:31:00.039Z,0.03
2023-04-01T07:33:35.399Z,0.20
2023-04-01T07:36:10.392Z,0.10
2023-04-01T07:38:49.588Z,0.20
2023-04-01T07:41:28.925Z,0.15
2023-04-01T07:44:05.362Z,0.10
2023-04-01T07:46:55.084Z,0.10
2023-04-01T07:49:30.938Z,0.10
2023-04-01T07:52:03.714Z,0.10
2023-04-01T07:54:40.388Z,0.00
2023-04-01T07:57:14.282Z,0.00
2023-04-01T07:59:50.873Z,0.10
2023-04-01T08:02:31.099Z,0.10
2023-04-01T08:05:11.277Z,0.10
2023-04-01T08:07:47.571Z,0.28
2023-04-01T08:10:24.385Z,0.30
2023-04-01T08:13:03.673Z,0.10
2023-04-01T08:15:39.898Z,0.10
2023-04-01T08:18:17.315Z,0.17
2023-04-01T08:20:49.835Z,0.10
2023-04-01T08:23:21.721Z,0.10
2023-04-01T08:25:56.678Z,0.03
2023-04-01T08:28:31.601Z,0.20
2023-04-01T08:31:05.823Z,0.20
2023-04-01T08:33:34.866Z,0.30
2023-04-01T08:36:10.216Z,0.10
2023-04-01T08:38:44.564Z,0.20
2023-04-01T08:41:37.777Z,0.13
2023-04-01T08:44:32.284Z,0.17
2023-04-01T08:47:29.841Z,0.20
2023-04-01T08:50:29.081Z,0.20
2023-04-01T08:53:05.043Z,0.47
2023-04-01T08:56:05.390Z,0.35
2023-04-01T08:59:01.822Z,0.10
2023-04-01T09:01:56.855Z,0.20
2023-04-01T09:04:34.837Z,0.20
2023-04-01T09:07:20.835Z,0.03
2023-04-01T09:10:26.855Z,0.20
2023-04-01T09:13:08.090Z,0.25
2023-04-01T09:18:24.735Z,0.10
2023-04-01T09:21:14.547Z,0.30
2023-04-01T09:24:10.541Z,0.10
2023-04-01T09:26:57.281Z,0.10
2023-04-01T09:29:41.135Z,0.10
2023-04-01T09:32:37.032Z,0.10
2023-04-01T09:35:22.801Z,0.30
2023-04-01T09:37:56.873Z,0.22
2023-04-01T09:40:33.630Z,0.10
2023-04-01T09:43:27.940Z,0.35
2023-04-01T09:46:25.945Z,0.10
2023-04-01T09:49:23.590Z,0.10
2023-04-01T09:52:07.183Z,0.20
2023-04-01T09:54:50.706Z,0.43
2023-04-01T09:57:53.846Z,0.30
2023-04-01T10:01:00.647Z,0.10
2023-04-01T10:04:11.553Z,0.20
2023-04-01T10:07:28.213Z,0.10
2023-04-01T10:10:19.128Z,0.17
2023-04-01T10:13:13.483Z,0.30
2023-04-01T10:16:05.326Z,0.20
2023-04-01T10:19:05.354Z,0.30
2023-04-01T10:22:04.838Z,0.28
2023-04-01T10:24:57.883Z,0.40
2023-04-01T10:27:51.796Z,0.30
2023-04-01T10:31:04.687Z,0.10
2023-04-01T10:34:07.640Z,0.10
2023-04-01T10:36:54.699Z,0.40
2023-04-01T10:39:49.028Z,0.20
2023-04-01T10:42:53.640Z,0.10
2023-04-01T10:45:48.045Z,0.47
2023-04-01T10:48:31.081Z,0.10
2023-04-01T10:51:18.794Z,0.10
2023-04-01T10:54:11.021Z,0.17
2023-04-01T10:56:42.152Z,0.10
2023-04-01T11:02:39.715Z,0.20
2023-04-01T11:05:46.652Z,0.30
2023-04-01T11:08:42.166Z,0.10
2023-04-01T11:11:42.087Z,0.13
2023-04-01T11:14:35.795Z,0.15
2023-04-01T11:17:36.349Z,0.10
2023-04-01T11:20:30.870Z,0.20
2023-04-01T11:23:42.020Z,0.30
2023-04-01T11:26:16.325Z,0.20
2023-04-01T11:29:18.845Z,0.10
2023-04-01T11:31:55.016Z,0.10
2023-04-01T11:34:40.089Z,0.10
2023-04-01T11:37:17.799Z,0.15
2023-04-01T11:39:58.291Z,0.00
2023-04-01T11:42:37.622Z,0.22
2023-04-01T11:45:24.864Z,0.08
2023-04-01T11:48:17.878Z,0.22
2023-04-01T11:51:10.936Z,0.20
2023-04-01T11:53:46.786Z,0.20
2023-04-01T11:56:26.795Z,0.20
2023-04-01T11:59:20.788Z,0.10
2023-04-01T12:01:59.821Z,0.10
2023-04-01T12:04:49.348Z,0.20
2023-04-01T12:07:25.009Z,0.10
2023-04-01T12:10:04.590Z,0.15
2023-04-01T12:12:54.246Z,0.20
2023-04-01T12:15:38.720Z,0.10
2023-04-01T12:18:18.992Z,0.13
2023-04-01T12:20:54.153Z,0.15
2023-04-01T12:23:57.682Z,0.17
2023-04-01T12:26:35.830Z,0.17
2023-04-01T12:29:21.494Z,0.20
2023-04-01T12:31:59.588Z,0.10
2023-04-01T12:34:59.530Z,0.20
2023-04-01T12:37:37.811Z,0.32
2023-04-01T12:40:31.441Z,0.15
2023-04-01T12:43:11.135Z,0.52
2023-04-01T12:45:46.983Z,0.25
2023-04-01T12:48:39.624Z,0.13
2023-04-01T12:51:45.873Z,0.10
2023-04-01T12:54:52.281Z,0.20
2023-04-01T12:57:37.028Z,0.28
2023-04-01T13:00:26.086Z,0.10
2023-04-01T13:03:08.791Z,0.15
2023-04-01T13:06:03.919Z,0.17
2023-04-01T13:08:42.396Z,0.20
2023-04-01T13:11:14.833Z,0.10
2023-04-01T13:13:58.812Z,0.10
2023-04-01T13:16:31.672Z,0.20
2023-04-01T13:19:07.283Z,0.10
2023-04-01T13:21:49.899Z,0.20
2023-04-01T13:24:27.981Z,0.10
2023-04-01T13:27:00.740Z,0.10
2023-04-01T13:29:33.541Z,0.10
2023-04-01T13:32:17.086Z,0.20
2023-04-01T13:35:06.259Z,0.10
2023-04-01T13:37:48.853Z,0.10
2023-04-01T13:40:49.305Z,0.22
2023-04-01T13:43:26.893Z,0.50
2023-04-01T13:46:13.548Z,0.20
2023-04-01T13:49:02.969Z,0.28
2023-04-01T13:52:12.635Z,0.20
2023-04-01T13:55:06.574Z,0.30
2023-04-01T13:57:55.925Z,0.22
2023-04-01T14:00:40.839Z,0.22
2023-04-01T14:03:29.796Z,0.13
2023-04-01T14:06:15.149Z,0.50
2023-04-01T14:09:13.131Z,0.28
2023-04-01T14:11:53.615Z,0.10
2023-04-01T14:14:33.377Z,0.10
2023-04-01T14:17:20.098Z,0.10
2023-04-01T14:20:15.365Z,0.03
2023-04-01T14:22:57.228Z,0.10
2023-04-01T14:25:57.640Z,0.57
2023-04-01T14:28:35.878Z,0.30
2023-04-01T14:31:23.180Z,0.30
2023-04-01T14:34:06.617Z,0.10
2023-04-01T14:36:52.775Z,0.20
2023-04-01T14:39:45.788Z,0.30
2023-04-01T14:42:43.544Z,0.10
2023-04-01T14:45:49.425Z,0.08
2023-04-01T14:48:25.297Z,0.20
2023-04-01T14:50:56.292Z,0.10
2023-04-01T14:53:31.238Z,0.15
2023-04-01T14:56:01.022Z,0.17
2023-04-01T14:58:45.102Z,0.17
2023-04-01T15:01:34.476Z,0.10
2023-04-01T15:04:13.036Z,0.10
2023-04-01T15:06:53.302Z,0.20
2023-04-01T15:09:28.304Z,0.10
2023-04-01T15:12:07.024Z,0.17
2023-04-01T15:15:01.566Z,0.10
2023-04-01T15:17:57.060Z,0.10
2023-04-01T15:20:50.908Z,0.00
2023-04-01T15:23:30.106Z,0.20
2023-04-01T15:26:15.384Z,0.20
2023-04-01T15:28:53.384Z,0.17
2023-04-01T15:31:29.954Z,0.10
2023-04-01T15:34:11.381Z,0.40
2023-04-01T15:36:46.570Z,0.28
2023-04-01T15:39:18.648Z,0.50
2023-04-01T15:42:04.248Z,0.43
2023-04-01T15:44:54.435Z,0.10
2023-04-01T15:47:43.267Z,0.10
2023-04-01T15:50:39.482Z,0.10
2023-04-01T15:53:20.452Z,0.15
2023-04-01T15:55:52.343Z,0.20
2023-04-01T15:58:41.311Z,0.20
2023-04-01T16:01:21.872Z,0.38
2023-04-01T16:03:59.891Z,0.30
2023-04-01T16:06:53.713Z,0.30
2023-04-01T16:09:41.541Z,0.30
2023-04-01T16:12:17.697Z,0.20
2023-04-01T16:14:56.198Z,0.28
2023-04-01T16:17:39.226Z,0.40
2023-04-01T16:20:20.545Z,0.20
2023-04-01T16:25:36.104Z,0.20
2023-04-01T16:28:21.490Z,0.28
2023-04-01T16:30:57.207Z,0.40
2023-04-01T16:33:34.059Z,0.20
2023-04-01T16:36:16.093Z,0.22
2023-04-01T16:38:52.039Z,0.50
2023-04-01T16:41:26.016Z,0.20
2023-04-01T16:43:58.252Z,0.10
2023-04-01T16:46:34.909Z,0.20
2023-04-01T16:49:17.219Z,0.17
2023-04-01T16:51:50.302Z,0.30
2023-04-01T16:54:29.158Z,0.30
2023-04-01T16:57:03.763Z,0.38
2023-04-01T16:59:37.948Z,0.20
2023-04-01T17:02:12.995Z,0.28
2023-04-01T17:04:46.383Z,0.30
2023-04-01T17:07:25.948Z,0.17
2023-04-01T17:10:27.102Z,0.20
2023-04-01T17:13:17.677Z,0.15
2023-04-01T17:15:48.856Z,0.30
2023-04-01T17:20:58.642Z,0.20
2023-04-01T17:23:34.589Z,0.40
2023-04-01T17:26:31.629Z,0.38
2023-04-01T17:29:06.214Z,0.50
2023-04-01T17:31:47.002Z,0.55
2023-04-01T17:34:42.133Z,0.35
2023-04-01T17:37:38.845Z,0.28
2023-04-01T17:40:28.450Z,0.43
2023-04-01T17:43:04.278Z,0.40
2023-04-01T17:45:39.701Z,0.30
2023-04-01T17:48:20.958Z,0.32
2023-04-01T17:53:41.238Z,0.10
2023-04-01T17:56:21.302Z,0.20
2023-04-01T17:58:58.808Z,0.73
2023-04-01T18:01:38.160Z,0.05
2023-04-01T18:04:31.985Z,0.10
2023-04-01T18:07:19.891Z,0.10
2023-04-01T18:09:59.614Z,0.10
2023-04-01T18:12:36.944Z,0.17
2023-04-01T18:15:16.296Z,0.20
2023-04-01T18:17:53.938Z,0.20
2023-04-01T18:20:37.595Z,0.28
2023-04-01T18:23:16.771Z,0.10
2023-04-01T18:25:49.151Z,0.10
2023-04-01T18:28:24.316Z,0.10
2023-04-01T18:30:56.368Z,0.20
2023-04-01T18:33:31.378Z,0.20
2023-04-01T18:36:11.855Z,0.10
2023-04-01T18:38:47.592Z,0.10
2023-04-01T18:41:17.863Z,0.10
2023-04-01T18:44:00.991Z,0.50
2023-04-01T18:46:37.058Z,0.30
2023-04-01T18:49:13.872Z,0.40
2023-04-01T18:51:48.526Z,0.25
2023-04-01T18:54:24.134Z,0.55
2023-04-01T18:56:52.091Z,0.35
2023-04-01T18:59:28.283Z,0.52
2023-04-01T19:02:08.188Z,0.10
2023-04-01T19:04:40.958Z,0.25
2023-04-01T19:07:45.726Z,0.30
2023-04-01T19:10:20.782Z,0.20
2023-04-01T19:13:04.497Z,0.32
2023-04-01T19:15:42.158Z,0.20
2023-04-01T19:18:42.609Z,0.50
2023-04-01T19:21:16.881Z,0.28
2023-04-01T19:24:21.768Z,0.20
2023-04-01T19:26:55.341Z,0.35
2023-04-01T19:29:33.734Z,0.55
2023-04-01T19:32:15.449Z,0.28
2023-04-01T19:34:58.760Z,0.30
2023-04-01T19:37:38.780Z,0.20
2023-04-01T19:40:22.987Z,0.10
2023-04-01T19:43:07.375Z,0.28
2023-04-01T19:45:42.928Z,0.30
2023-04-01T19:48:29.364Z,0.20
2023-04-01T19:51:01.832Z,0.17
2023-04-01T19:53:38.002Z,0.30
2023-04-01T19:56:15.396Z,0.13
2023-04-01T19:58:48.110Z,0.20
2023-04-01T20:01:31.977Z,0.20
2023-04-01T20:04:19.860Z,0.22
2023-04-01T20:06:54.377Z,0.20
2023-04-01T20:09:52.806Z,0.35
2023-04-01T20:12:35.630Z,0.73
2023-04-01T20:15:06.578Z,0.43
2023-04-01T20:17:43.266Z,0.32
2023-04-01T20:20:23.277Z,0.20
2023-04-01T20:23:08.224Z,0.57
2023-04-01T20:25:43.507Z,0.68
2023-04-01T20:28:15.937Z,0.50
2023-04-01T20:31:01.746Z,0.32
2023-04-01T20:33:46.303Z,0.35
2023-04-01T20:36:22.982Z,0.57
2023-04-01T20:39:21.501Z,0.28
2023-04-01T20:42:04.502Z,0.28
2023-04-01T20:44:41.221Z,0.60
2023-04-01T20:47:20.511Z,0.73
2023-04-01T20:50:00.543Z,1.83
2023-04-01T20:52:37.785Z,2.40
2023-04-01T20:55:37.781Z,2.13
2023-04-01T20:58:15.312Z,1.52
2023-04-01T21:00:57.417Z,1.05
2023-04-01T21:03:39.541Z,0.77
2023-04-01T21:06:29.462Z,0.80
2023-04-01T21:09:12.990Z,0.30
2023-04-01T21:11:52.928Z,0.22
2023-04-01T21:14:59.799Z,0.30
2023-04-01T21:17:40.692Z,0.30
2023-04-01T21:20:45.039Z,0.30
2023-04-01T21:23:31.771Z,0.20
2023-04-01T21:26:12.401Z,0.30
2023-04-01T21:28:51.330Z,0.45
2023-04-01T21:31:29.374Z,0.15
2023-04-01T21:34:12.544Z,0.10
2023-04-01T21:36:54.170Z,0.20
2023-04-01T21:39:36.863Z,0.43
2023-04-01T21:42:26.472Z,0.22
2023-04-01T21:45:09.243Z,0.22
2023-04-01T21:48:14.864Z,0.10
2023-04-01T21:50:50.508Z,0.20
2023-04-01T21:53:45.320Z,0.13
2023-04-01T21:56:45.649Z,0.30
2023-04-01T21:59:39.406Z,0.20
2023-04-01T22:02:40.063Z,0.10
2023-04-01T22:05:11.859Z,0.30
2023-04-01T22:07:44.456Z,0.20
2023-04-01T22:10:21.020Z,0.10
2023-04-01T22:12:55.774Z,0.30
2023-04-01T22:15:33.195Z,0.10
2023-04-01T22:18:10.405Z,0.10
2023-04-01T22:20:46.163Z,0.35
2023-04-01T22:23:27.129Z,0.10
2023-04-01T22:26:00.310Z,0.15
2023-04-01T22:28:34.098Z,0.10
2023-04-01T22:31:05.081Z,0.20
2023-04-01T22:33:40.728Z,0.10
2023-04-01T22:36:17.479Z,0.20
2023-04-01T22:39:11.124Z,0.50
2023-04-01T22:41:55.894Z,0.55
2023-04-01T22:44:44.643Z,0.03
2023-04-01T22:47:24.735Z,0.10
2023-04-01T22:49:58.798Z,0.10
2023-04-01T22:52:33.246Z,0.30
2023-04-01T22:55:05.221Z,0.10
2023-04-01T22:57:48.167Z,0.20
2023-04-01T23:00:21.837Z,0.15
2023-04-01T23:03:03.703Z,0.20
2023-04-01T23:05:33.633Z,0.20
2023-04-01T23:08:08.100Z,0.40
2023-04-01T23:10:43.402Z,0.10
2023-04-01T23:13:15.782Z,0.28
2023-04-01T23:15:44.295Z,0.10
2023-04-01T23:18:22.863Z,0.30
2023-04-01T23:21:11.453Z,0.17
2023-04-01T23:23:52.865Z,0.20
2023-04-01T23:26:26.503Z,0.32
2023-04-01T23:28:56.037Z,0.15
2023-04-01T23:31:33.419Z,0.10
2023-04-01T23:34:04.993Z,0.40
2023-04-01T23:36:38.921Z,0.10
2023-04-01T23:39:12.383Z,0.10
2023-04-01T23:41:40.356Z,0.10
2023-04-01T23:44:12.555Z,0.20
2023-04-01T23:46:42.217Z,0.50
2023-04-01T23:49:15.870Z,0.15
2023-04-01T23:51:54.151Z,0.10
2023-04-01T23:54:30.992Z,0.30
2023-04-01T23:56:59.681Z,0.20
2023-04-01T23:59:31.804Z,0.40
